Time;durP1;ratioP1;P1;durP2;ratioP2;P2;SDS_P1;SDS_P2;PMS_P1;PMS_P2;Temp;Humidity;BMP_temperature;BMP_pressure;BME280_temperature;BME280_humidity;BME280_pressure;Samples;Min_cycle;Max_cycle;Signal;HPM_P1;HPM_P2
2022/05/14 00:00:24;;;;;;;12.55;11.75;;;;;;;;;;5070262;28;20039;-59
2022/05/14 00:02:50;;;;;;;11.18;10.48;;;;;;;;;;5069606;28;20029;-59
2022/05/14 00:05:18;;;;;;;11.10;10.38;;;;;;;;;;5069423;28;20086;-59
2022/05/14 00:07:43;;;;;;;9.57;8.98;;;;;;;;;;5069829;28;20024;-59
2022/05/14 00:10:10;;;;;;;10.45;9.77;;;;;;;;;;5069958;28;20474;-59
2022/05/14 00:15:20;;;;;;;10.00;9.40;;;;;;;;;;5068310;28;20554;-59
2022/05/14 00:17:47;;;;;;;12.52;11.65;;;;;;;;;;5069696;28;20027;-59
2022/05/14 00:20:13;;;;;;;11.25;10.55;;;;;;;;;;5069199;28;20601;-59
2022/05/14 00:22:38;;;;;;;13.18;12.38;;;;;;;;;;5068560;28;20037;-59
2022/05/14 00:25:04;;;;;;;12.23;11.43;;;;;;;;;;5070617;28;20036;-59
2022/05/14 00:27:30;;;;;;;14.40;13.57;;;;;;;;;;5068832;28;20052;-59
2022/05/14 00:29:55;;;;;;;18.00;16.95;;;;;;;;;;5069249;28;20494;-59
2022/05/14 00:32:21;;;;;;;20.63;19.52;;;;;;;;;;5068651;28;20077;-59
2022/05/14 00:34:46;;;;;;;22.58;21.35;;;;;;;;;;5083699;28;20067;-59
2022/05/14 00:37:12;;;;;;;20.90;19.75;;;;;;;;;;5068855;28;20043;-59
2022/05/14 00:39:37;;;;;;;18.92;17.88;;;;;;;;;;5067323;28;20032;-59
2022/05/14 00:42:03;;;;;;;14.60;13.30;;;;;;;;;;5068500;28;20036;-59
2022/05/14 00:44:28;;;;;;;16.13;15.18;;;;;;;;;;5069020;28;20020;-60
2022/05/14 00:47:03;;;;;;;13.73;12.90;;;;;;;;;;5068851;28;20032;-60
2022/05/14 00:49:31;;;;;;;13.48;12.70;;;;;;;;;;5067688;28;20038;-59
2022/05/14 00:51:59;;;;;;;8.65;8.05;;;;;;;;;;5068757;28;20029;-59
2022/05/14 00:54:38;;;;;;;11.13;10.45;;;;;;;;;;5060391;28;20032;-59
2022/05/14 00:57:07;;;;;;;9.30;8.70;;;;;;;;;;5067981;28;20086;-59
2022/05/14 00:59:34;;;;;;;9.48;8.88;;;;;;;;;;5068657;28;20056;-59
2022/05/14 01:02:00;;;;;;;11.00;10.20;;;;;;;;;;5065823;28;20028;-59
2022/05/14 01:04:29;;;;;;;10.65;10.00;;;;;;;;;;5068080;28;20033;-59
2022/05/14 01:07:00;;;;;;;11.23;10.52;;;;;;;;;;5067143;28;20043;-61
2022/05/14 01:09:27;;;;;;;10.70;10.00;;;;;;;;;;5068542;28;20032;-59
2022/05/14 01:11:54;;;;;;;16.55;15.30;;;;;;;;;;5067846;28;20150;-59
2022/05/14 01:14:20;;;;;;;18.25;16.95;;;;;;;;;;5068089;28;20054;-59
2022/05/14 01:16:46;;;;;;;16.00;14.90;;;;;;;;;;5062165;28;20123;-59
2022/05/14 01:19:11;;;;;;;15.52;14.35;;;;;;;;;;5065595;28;20158;-60
2022/05/14 01:21:52;;;;;;;15.25;14.38;;;;;;;;;;5068311;28;20498;-60
2022/05/14 01:27:17;;;;;;;20.30;19.17;;;;;;;;;;5067548;28;20024;-60
2022/05/14 01:29:43;;;;;;;23.65;22.35;;;;;;;;;;5067621;28;20110;-60
2022/05/14 01:32:08;;;;;;;25.55;24.20;;;;;;;;;;5068047;28;20606;-59
2022/05/14 01:34:35;;;;;;;22.00;20.80;;;;;;;;;;5067395;28;20028;-60
2022/05/14 01:37:02;;;;;;;13.07;12.32;;;;;;;;;;5066357;28;20095;-60
2022/05/14 01:39:28;;;;;;;11.60;10.90;;;;;;;;;;5068000;28;20032;-60
2022/05/14 01:41:54;;;;;;;17.10;16.15;;;;;;;;;;5066456;28;20532;-60
2022/05/14 01:44:20;;;;;;;18.85;17.80;;;;;;;;;;5067504;28;20041;-59
2022/05/14 01:46:46;;;;;;;14.85;13.93;;;;;;;;;;5067518;28;20466;-60
2022/05/14 01:49:12;;;;;;;10.57;9.93;;;;;;;;;;5066698;28;20446;-60
2022/05/14 01:51:37;;;;;;;12.18;11.43;;;;;;;;;;5067148;28;20017;-60
2022/05/14 01:54:04;;;;;;;10.75;10.10;;;;;;;;;;5068217;28;20066;-60
2022/05/14 01:56:29;;;;;;;12.45;11.73;;;;;;;;;;5067770;28;20466;-60
2022/05/14 01:58:55;;;;;;;14.40;13.50;;;;;;;;;;5066971;28;20529;-60
2022/05/14 02:01:26;;;;;;;16.92;15.95;;;;;;;;;;5067166;28;20040;-60
2022/05/14 02:04:01;;;;;;;15.73;14.85;;;;;;;;;;5066275;28;20079;-59
2022/05/14 02:06:28;;;;;;;16.05;15.15;;;;;;;;;;5067597;28;20358;-60
2022/05/14 02:08:53;;;;;;;19.13;18.02;;;;;;;;;;5067085;28;20039;-59
2022/05/14 02:11:19;;;;;;;19.20;18.10;;;;;;;;;;5066944;28;20024;-60
2022/05/14 02:13:45;;;;;;;19.27;18.23;;;;;;;;;;5066538;28;20496;-59
2022/05/14 02:16:11;;;;;;;20.30;19.20;;;;;;;;;;5067533;28;20457;-59
2022/05/14 02:18:36;;;;;;;17.33;16.33;;;;;;;;;;5065725;28;20055;-60
2022/05/14 02:21:03;;;;;;;17.45;16.45;;;;;;;;;;5066836;28;20036;-59
2022/05/14 02:23:28;;;;;;;17.30;16.30;;;;;;;;;;5062028;28;20107;-60
2022/05/14 02:25:54;;;;;;;18.02;17.02;;;;;;;;;;5067719;28;20162;-59
2022/05/14 02:28:20;;;;;;;16.67;15.73;;;;;;;;;;5066370;28;20048;-59
2022/05/14 02:30:45;;;;;;;14.85;13.95;;;;;;;;;;5067011;28;20505;-59
2022/05/14 02:33:11;;;;;;;16.15;15.25;;;;;;;;;;5066653;28;20023;-59
2022/05/14 02:35:37;;;;;;;15.13;14.23;;;;;;;;;;5066494;28;20516;-60
2022/05/14 02:38:03;;;;;;;13.45;12.65;;;;;;;;;;5066022;28;20039;-60
2022/05/14 02:40:29;;;;;;;12.60;11.90;;;;;;;;;;5065813;28;20466;-60
2022/05/14 02:42:55;;;;;;;11.85;11.15;;;;;;;;;;5066761;28;20038;-60
2022/05/14 02:45:21;;;;;;;12.60;11.82;;;;;;;;;;5066482;28;20020;-59
2022/05/14 02:47:46;;;;;;;11.60;10.90;;;;;;;;;;5066516;28;20489;-60
2022/05/14 02:50:12;;;;;;;11.75;11.05;;;;;;;;;;5066501;28;20035;-60
2022/05/14 02:52:37;;;;;;;12.70;11.90;;;;;;;;;;5066482;28;20020;-60
2022/05/14 02:55:04;;;;;;;10.38;9.75;;;;;;;;;;5066427;28;20032;-60
2022/05/14 02:57:30;;;;;;;9.80;9.20;;;;;;;;;;5065894;28;20040;-60
2022/05/14 02:59:55;;;;;;;9.07;8.48;;;;;;;;;;5081662;28;20119;-60
2022/05/14 03:02:20;;;;;;;12.55;11.75;;;;;;;;;;5066369;28;20703;-60
2022/05/14 03:04:48;;;;;;;11.57;10.88;;;;;;;;;;5065346;28;20104;-60
2022/05/14 03:07:15;;;;;;;10.85;10.20;;;;;;;;;;5066874;28;20074;-60
2022/05/14 03:09:41;;;;;;;11.07;10.38;;;;;;;;;;5065204;28;20024;-60
2022/05/14 03:12:09;;;;;;;11.23;10.52;;;;;;;;;;5066000;28;20035;-60
2022/05/14 03:14:35;;;;;;;11.10;10.40;;;;;;;;;;5066100;28;20035;-59
2022/05/14 03:17:01;;;;;;;10.15;9.55;;;;;;;;;;5066164;28;20036;-60
2022/05/14 03:19:26;;;;;;;11.80;11.10;;;;;;;;;;5065525;28;20060;-60
2022/05/14 03:21:51;;;;;;;10.05;9.45;;;;;;;;;;5066110;28;20094;-60
2022/05/14 03:24:18;;;;;;;11.48;10.77;;;;;;;;;;5066022;28;20081;-60
2022/05/14 03:26:44;;;;;;;9.65;9.05;;;;;;;;;;5069797;28;20039;-60
2022/05/14 03:29:10;;;;;;;10.18;9.57;;;;;;;;;;5069858;28;20036;-60
2022/05/14 03:31:37;;;;;;;10.40;9.75;;;;;;;;;;5070061;28;20139;-60
2022/05/14 03:34:03;;;;;;;10.00;9.30;;;;;;;;;;5069360;28;20062;-60
2022/05/14 03:36:29;;;;;;;9.32;8.73;;;;;;;;;;5069790;28;20033;-60
2022/05/14 03:38:54;;;;;;;11.48;10.77;;;;;;;;;;5069851;28;20027;-60
2022/05/14 03:41:21;;;;;;;11.13;10.45;;;;;;;;;;5085484;28;20021;-60
2022/05/14 03:43:48;;;;;;;10.43;9.77;;;;;;;;;;5069049;28;20119;-60
2022/05/14 03:46:14;;;;;;;9.43;8.82;;;;;;;;;;5069926;28;20726;-59
2022/05/14 03:48:40;;;;;;;9.52;8.82;;;;;;;;;;5069413;28;20092;-60
2022/05/14 03:51:06;;;;;;;9.55;8.95;;;;;;;;;;5069793;28;20158;-59
2022/05/14 03:53:33;;;;;;;9.15;8.55;;;;;;;;;;5069516;28;20123;-60
2022/05/14 03:55:58;;;;;;;9.38;8.68;;;;;;;;;;5067689;28;20036;-60
2022/05/14 03:58:24;;;;;;;7.70;7.20;;;;;;;;;;5069104;28;20021;-60
2022/05/14 04:00:49;;;;;;;7.13;6.60;;;;;;;;;;5069616;28;20606;-60
2022/05/14 04:03:15;;;;;;;7.60;7.10;;;;;;;;;;5070116;28;20032;-60
2022/05/14 04:05:40;;;;;;;8.68;8.07;;;;;;;;;;5085738;28;20039;-60
2022/05/14 04:08:06;;;;;;;8.20;7.70;;;;;;;;;;5069514;28;20020;-60
2022/05/14 04:10:32;;;;;;;8.32;7.68;;;;;;;;;;5069533;28;20038;-60
2022/05/14 04:12:58;;;;;;;8.48;7.97;;;;;;;;;;5068290;28;20103;-60
2022/05/14 04:15:24;;;;;;;7.65;7.15;;;;;;;;;;5069171;28;20032;-60
2022/05/14 04:17:54;;;;;;;8.23;7.68;;;;;;;;;;5069296;28;20032;-60
2022/05/14 04:20:20;;;;;;;8.18;7.65;;;;;;;;;;5068606;28;20024;-60
2022/05/14 04:22:46;;;;;;;7.15;6.65;;;;;;;;;;5069504;28;20024;-60
2022/05/14 04:25:12;;;;;;;7.30;6.80;;;;;;;;;;5068927;28;20089;-60
2022/05/14 04:27:41;;;;;;;7.10;6.60;;;;;;;;;;5068413;28;20039;-60
2022/05/14 04:30:07;;;;;;;6.68;6.18;;;;;;;;;;5068521;28;20160;-60
2022/05/14 04:32:33;;;;;;;6.25;5.82;;;;;;;;;;5069018;28;20021;-60
2022/05/14 04:34:58;;;;;;;6.40;5.80;;;;;;;;;;5068575;28;20100;-60
2022/05/14 04:37:23;;;;;;;5.93;5.53;;;;;;;;;;5069425;28;20029;-60
2022/05/14 04:39:49;;;;;;;6.70;6.20;;;;;;;;;;5069658;28;20036;-60
2022/05/14 04:42:15;;;;;;;7.35;6.85;;;;;;;;;;5069236;28;20411;-60
2022/05/14 04:44:41;;;;;;;6.47;5.97;;;;;;;;;;5069017;28;20036;-60
2022/05/14 04:47:07;;;;;;;6.18;5.78;;;;;;;;;;5068573;28;20485;-60
2022/05/14 04:49:41;;;;;;;6.25;5.85;;;;;;;;;;5068119;28;20074;-60
2022/05/14 04:52:07;;;;;;;7.03;6.53;;;;;;;;;;5067850;28;20021;-60
2022/05/14 04:54:33;;;;;;;7.18;6.68;;;;;;;;;;5068689;28;20029;-60
2022/05/14 04:56:58;;;;;;;7.72;7.13;;;;;;;;;;5067204;28;20032;-60
2022/05/14 04:59:23;;;;;;;7.10;6.55;;;;;;;;;;5068611;28;20100;-60
2022/05/14 05:04:34;;;;;;;6.93;6.43;;;;;;;;;;5067986;28;20148;-60
2022/05/14 05:07:00;;;;;;;6.43;6.00;;;;;;;;;;5068454;28;20032;-60
2022/05/14 05:09:25;;;;;;;6.18;5.68;;;;;;;;;;5068053;28;20032;-60
2022/05/14 05:11:51;;;;;;;6.65;6.15;;;;;;;;;;5083947;28;20055;-60
2022/05/14 05:14:17;;;;;;;6.15;5.75;;;;;;;;;;5068069;28;20481;-60
2022/05/14 05:16:42;;;;;;;7.65;7.05;;;;;;;;;;5068196;28;20021;-65
2022/05/14 05:19:07;;;;;;;6.65;6.05;;;;;;;;;;5064726;28;20036;-65
2022/05/14 05:21:33;;;;;;;6.97;6.43;;;;;;;;;;5068158;28;20028;-65
2022/05/14 05:23:59;;;;;;;7.35;6.75;;;;;;;;;;5067943;28;20468;-66
2022/05/14 05:26:24;;;;;;;6.63;6.13;;;;;;;;;;5069871;28;20067;-65
2022/05/14 05:28:50;;;;;;;5.68;5.28;;;;;;;;;;5067027;28;20138;-65
2022/05/14 05:31:15;;;;;;;6.40;5.90;;;;;;;;;;5067917;28;20024;-65
2022/05/14 05:33:40;;;;;;;5.88;5.47;;;;;;;;;;5067813;28;20509;-65
2022/05/14 05:36:07;;;;;;;5.63;5.22;;;;;;;;;;5066988;28;20024;-66
2022/05/14 05:38:33;;;;;;;6.85;6.32;;;;;;;;;;5067667;28;20062;-65
2022/05/14 05:40:58;;;;;;;6.30;5.82;;;;;;;;;;5067473;28;20119;-66
2022/05/14 05:43:23;;;;;;;7.55;6.95;;;;;;;;;;5066524;28;20159;-66
2022/05/14 05:45:50;;;;;;;5.72;5.32;;;;;;;;;;5067240;28;20067;-65
2022/05/14 05:48:16;;;;;;;6.68;6.07;;;;;;;;;;5066341;28;20155;-66
2022/05/14 05:50:44;;;;;;;6.95;6.13;;;;;;;;;;5070393;28;20068;-66
2022/05/14 05:53:10;;;;;;;6.22;5.72;;;;;;;;;;5067492;28;20025;-65
2022/05/14 05:58:20;;;;;;;6.65;6.18;;;;;;;;;;5067252;28;20052;-65
2022/05/14 06:00:45;;;;;;;7.07;6.57;;;;;;;;;;5065592;28;20033;-65
2022/05/14 06:03:11;;;;;;;7.00;6.50;;;;;;;;;;5066361;28;20025;-67
2022/05/14 06:05:38;;;;;;;8.63;7.82;;;;;;;;;;5065948;28;20075;-66
2022/05/14 06:08:13;;;;;;;6.60;6.10;;;;;;;;;;5066705;28;20108;-67
2022/05/14 06:10:39;;;;;;;7.80;7.30;;;;;;;;;;5067212;28;20123;-67
2022/05/14 06:13:05;;;;;;;6.95;6.45;;;;;;;;;;5066359;28;20496;-66
2022/05/14 06:15:31;;;;;;;7.30;6.80;;;;;;;;;;5066734;28;20067;-65
2022/05/14 06:18:04;;;;;;;8.05;7.55;;;;;;;;;;5066571;28;20505;-67
2022/05/14 06:20:30;;;;;;;11.25;10.45;;;;;;;;;;5066128;28;20024;-66
2022/05/14 06:22:55;;;;;;;11.73;10.98;;;;;;;;;;5066529;28;20036;-66
2022/05/14 06:25:21;;;;;;;11.00;10.30;;;;;;;;;;5066993;28;20458;-67
2022/05/14 06:27:46;;;;;;;12.88;12.07;;;;;;;;;;5066113;28;20054;-67
2022/05/14 06:30:12;;;;;;;13.15;12.35;;;;;;;;;;5066656;28;20740;-66
2022/05/14 06:32:38;;;;;;;13.73;12.82;;;;;;;;;;5065478;28;20956;-66
2022/05/14 06:35:08;;;;;;;13.40;12.60;;;;;;;;;;5065542;28;20027;-65
2022/05/14 06:37:34;;;;;;;13.52;12.70;;;;;;;;;;5065299;28;20442;-66
2022/05/14 06:39:59;;;;;;;15.73;14.82;;;;;;;;;;5065714;28;20097;-65
2022/05/14 06:42:25;;;;;;;12.55;11.85;;;;;;;;;;5065329;28;20029;-67
2022/05/14 06:44:50;;;;;;;12.30;11.60;;;;;;;;;;5066318;28;20029;-67
2022/05/14 06:47:15;;;;;;;11.73;11.02;;;;;;;;;;5066559;28;20621;-65
2022/05/14 06:49:41;;;;;;;12.63;11.93;;;;;;;;;;5065644;28;20366;-67
2022/05/14 06:52:11;;;;;;;13.02;12.15;;;;;;;;;;5066208;28;20056;-66
2022/05/14 06:54:38;;;;;;;11.98;11.27;;;;;;;;;;5065765;28;20470;-66
2022/05/14 06:57:04;;;;;;;11.35;10.65;;;;;;;;;;5065531;28;20038;-65
2022/05/14 06:59:31;;;;;;;12.13;11.25;;;;;;;;;;5064918;28;20045;-67
2022/05/14 07:01:56;;;;;;;10.43;9.82;;;;;;;;;;5065478;28;20032;-67
2022/05/14 07:07:05;;;;;;;11.00;10.30;;;;;;;;;;5065964;28;20381;-66
2022/05/14 07:09:32;;;;;;;8.52;8.02;;;;;;;;;;5066217;28;20024;-65
2022/05/14 07:12:03;;;;;;;7.95;7.45;;;;;;;;;;5065260;28;20032;-66
2022/05/14 07:14:30;;;;;;;8.25;7.68;;;;;;;;;;5065450;28;20052;-67
2022/05/14 07:16:56;;;;;;;8.55;7.95;;;;;;;;;;5065912;28;20043;-66
2022/05/14 07:19:21;;;;;;;7.47;6.97;;;;;;;;;;5064051;28;20032;-67
2022/05/14 07:21:48;;;;;;;7.80;7.30;;;;;;;;;;5066047;28;20032;-67
2022/05/14 07:24:19;;;;;;;8.00;7.50;;;;;;;;;;5065577;28;20064;-66
2022/05/14 07:26:45;;;;;;;7.93;7.43;;;;;;;;;;5064650;28;20029;-67
2022/05/14 07:29:14;;;;;;;6.65;6.15;;;;;;;;;;5059841;28;20505;-65
2022/05/14 07:31:40;;;;;;;7.85;7.35;;;;;;;;;;5080235;28;20035;-65
2022/05/14 07:34:07;;;;;;;9.32;8.73;;;;;;;;;;5065223;28;20036;-66
2022/05/14 07:36:38;;;;;;;6.50;6.03;;;;;;;;;;5065593;28;20071;-66
2022/05/14 07:39:07;;;;;;;7.45;6.95;;;;;;;;;;5064563;28;20047;-67
2022/05/14 07:41:35;;;;;;;7.47;6.97;;;;;;;;;;5064602;28;20077;-66
2022/05/14 07:44:03;;;;;;;8.15;7.32;;;;;;;;;;5065341;28;20182;-66
2022/05/14 07:46:32;;;;;;;7.00;6.50;;;;;;;;;;5065702;28;20123;-66
2022/05/14 07:48:58;;;;;;;7.47;6.97;;;;;;;;;;5065163;28;20040;-67
2022/05/14 07:51:25;;;;;;;7.95;7.30;;;;;;;;;;5064930;28;20043;-66
2022/05/14 07:53:51;;;;;;;7.97;7.47;;;;;;;;;;5065184;28;20027;-68
2022/05/14 07:56:17;;;;;;;6.80;6.30;;;;;;;;;;5065586;28;20111;-67
2022/05/14 07:58:43;;;;;;;10.30;9.70;;;;;;;;;;5064430;28;20584;-67
2022/05/14 08:01:09;;;;;;;8.27;7.78;;;;;;;;;;5065653;28;20047;-67
2022/05/14 08:03:34;;;;;;;9.05;8.48;;;;;;;;;;5065518;28;20059;-67
2022/05/14 08:06:00;;;;;;;18.35;17.35;;;;;;;;;;5064679;28;20040;-67
2022/05/14 08:08:26;;;;;;;16.08;15.18;;;;;;;;;;5064115;28;20025;-66
2022/05/14 08:10:52;;;;;;;20.45;19.05;;;;;;;;;;5065473;28;20031;-67
2022/05/14 08:13:19;;;;;;;24.05;22.77;;;;;;;;;;5069029;28;20025;-68
2022/05/14 08:15:46;;;;;;;18.27;17.27;;;;;;;;;;5067200;28;20269;-68
2022/05/14 08:18:13;;;;;;;23.65;22.38;;;;;;;;;;5068724;28;20025;-67
2022/05/14 08:20:39;;;;;;;13.95;13.15;;;;;;;;;;5069060;28;20559;-68
2022/05/14 08:25:51;;;;;;;28.88;27.27;;;;;;;;;;5067739;28;20104;-68
2022/05/14 08:28:17;;;;;;;30.55;28.95;;;;;;;;;;5068376;28;20702;-68
2022/05/14 08:30:43;;;;;;;36.22;34.33;;;;;;;;;;5068650;28;20028;-69
2022/05/14 08:33:08;;;;;;;34.47;32.67;;;;;;;;;;5068503;28;20025;-69
2022/05/14 08:35:35;;;;;;;37.28;35.38;;;;;;;;;;5068929;28;20465;-69
2022/05/14 08:38:01;;;;;;;43.75;41.55;;;;;;;;;;5068424;28;20072;-69
2022/05/14 08:40:30;;;;;;;38.97;36.97;;;;;;;;;;5068808;28;20387;-69
2022/05/14 08:42:59;;;;;;;30.60;29.00;;;;;;;;;;5067470;28;20043;-68
2022/05/14 08:45:28;;;;;;;43.80;41.60;;;;;;;;;;5067988;28;20519;-67
2022/05/14 08:47:57;;;;;;;40.65;38.38;;;;;;;;;;5067474;28;20036;-67
2022/05/14 08:50:30;;;;;;;37.10;35.20;;;;;;;;;;5067227;28;20335;-68
2022/05/14 08:53:00;;;;;;;30.52;28.92;;;;;;;;;;5068483;28;20043;-68
2022/05/14 08:55:32;;;;;;;33.05;31.35;;;;;;;;;;5068320;28;20028;-69
2022/05/14 08:58:36;;;;;;;27.73;26.27;;;;;;;;;;5067975;28;20051;-67
2022/05/14 09:01:04;;;;;;;23.27;22.02;;;;;;;;;;5067814;28;20025;-67
2022/05/14 09:03:29;;;;;;;27.73;26.23;;;;;;;;;;5066441;28;20135;-67
2022/05/14 09:05:57;;;;;;;45.05;42.75;;;;;;;;;;5068425;28;20067;-67
2022/05/14 09:08:23;;;;;;;35.67;33.67;;;;;;;;;;5067711;28;20027;-69
2022/05/14 09:11:11;;;;;;;28.98;27.48;;;;;;;;;;5067971;28;20054;-68
2022/05/14 09:13:45;;;;;;;27.63;26.17;;;;;;;;;;5068427;28;20549;-68
2022/05/14 09:16:28;;;;;;;32.58;30.88;;;;;;;;;;5067526;28;20032;-68
2022/05/14 09:18:54;;;;;;;36.95;35.03;;;;;;;;;;5067056;28;20032;-68
2022/05/14 09:21:22;;;;;;;51.22;48.65;;;;;;;;;;5066614;28;20732;-69
2022/05/14 09:23:55;;;;;;;34.55;32.75;;;;;;;;;;5066488;28;20028;-68
2022/05/14 09:26:30;;;;;;;30.00;28.30;;;;;;;;;;5067440;28;20024;-69
2022/05/14 09:29:00;;;;;;;42.50;40.35;;;;;;;;;;5067436;28;20415;-68
2022/05/14 09:31:34;;;;;;;23.77;22.50;;;;;;;;;;5067472;28;20029;-68
2022/05/14 09:34:05;;;;;;;65.32;62.05;;;;;;;;;;5066572;28;20032;-68
2022/05/14 09:36:34;;;;;;;60.97;57.90;;;;;;;;;;5066831;28;20143;-67
2022/05/14 09:39:03;;;;;;;63.63;60.42;;;;;;;;;;5067409;28;20112;-68
2022/05/14 09:41:28;;;;;;;71.80;68.22;;;;;;;;;;5065540;28;20024;-67
2022/05/14 09:43:55;;;;;;;59.45;56.45;;;;;;;;;;5060397;28;20358;-68
2022/05/14 09:46:31;;;;;;;94.78;90.10;;;;;;;;;;5067067;28;20096;-68
2022/05/14 09:49:06;;;;;;;80.85;76.85;;;;;;;;;;5066623;28;20050;-67
2022/05/14 09:51:47;;;;;;;72.38;68.78;;;;;;;;;;5066760;28;20068;-68
2022/05/14 09:54:29;;;;;;;47.75;45.20;;;;;;;;;;5067149;28;20029;-66
2022/05/14 09:57:00;;;;;;;62.88;59.65;;;;;;;;;;5064779;28;20024;-65
2022/05/14 09:59:56;;;;;;;47.47;45.08;;;;;;;;;;5066911;28;20038;-67
2022/05/14 10:02:44;;;;;;;61.90;58.78;;;;;;;;;;5066581;28;20732;-67
2022/05/14 10:05:36;;;;;;;67.82;64.43;;;;;;;;;;5066429;28;20436;-68
2022/05/14 10:08:10;;;;;;;36.33;34.42;;;;;;;;;;5066673;28;20036;-68
2022/05/14 10:10:51;;;;;;;44.80;42.50;;;;;;;;;;5066812;28;20391;-67
2022/05/14 10:13:25;;;;;;;22.23;21.02;;;;;;;;;;5050785;28;20482;-67
2022/05/14 10:16:03;;;;;;;52.28;49.60;;;;;;;;;;5066140;28;20264;-67
2022/05/14 10:18:55;;;;;;;55.65;52.78;;;;;;;;;;5065911;28;20028;-68
2022/05/14 10:21:40;;;;;;;19.02;17.92;;;;;;;;;;5067014;28;20544;-66
2022/05/14 10:27:11;;;;;;;19.20;18.13;;;;;;;;;;5065244;28;20036;-67
2022/05/14 10:29:43;;;;;;;20.52;19.42;;;;;;;;;;5068764;28;20644;-68
2022/05/14 10:32:13;;;;;;;19.88;18.77;;;;;;;;;;5065806;28;20086;-67
2022/05/14 10:34:48;;;;;;;18.08;17.08;;;;;;;;;;5065461;28;20400;-65
2022/05/14 10:37:19;;;;;;;17.15;16.15;;;;;;;;;;5066557;28;20031;-67
2022/05/14 10:40:02;;;;;;;21.02;19.92;;;;;;;;;;5066714;28;20021;-68
2022/05/14 10:42:53;;;;;;;17.83;16.73;;;;;;;;;;5065981;28;20111;-67
2022/05/14 10:45:22;;;;;;;19.40;18.35;;;;;;;;;;5066719;28;20029;-68
2022/05/14 10:48:00;;;;;;;18.87;17.87;;;;;;;;;;5066185;28;20028;-68
2022/05/14 10:50:28;;;;;;;17.65;16.65;;;;;;;;;;5065913;28;20025;-67
2022/05/14 10:52:55;;;;;;;21.55;20.35;;;;;;;;;;5056724;28;20111;-67
2022/05/14 10:55:32;;;;;;;18.35;17.35;;;;;;;;;;5066330;28;20513;-67
2022/05/14 10:58:03;;;;;;;17.85;16.85;;;;;;;;;;5066003;28;20049;-68
2022/05/14 11:00:28;;;;;;;17.95;16.95;;;;;;;;;;5066192;28;20089;-68
2022/05/14 11:03:02;;;;;;;29.83;28.23;;;;;;;;;;5065579;28;20024;-66
2022/05/14 11:05:47;;;;;;;31.52;29.83;;;;;;;;;;5065953;28;20066;-68
2022/05/14 11:08:26;;;;;;;39.45;37.40;;;;;;;;;;5066475;28;20040;-68
2022/05/14 11:11:02;;;;;;;48.70;46.22;;;;;;;;;;5080640;28;20031;-68
2022/05/14 11:13:27;;;;;;;30.65;29.05;;;;;;;;;;5065026;28;20557;-68
2022/05/14 11:16:03;;;;;;;71.43;67.85;;;;;;;;;;5066140;28;20039;-68
2022/05/14 11:18:29;;;;;;;49.42;46.90;;;;;;;;;;5065138;28;20398;-68
2022/05/14 11:21:00;;;;;;;52.80;50.15;;;;;;;;;;5066164;28;20040;-69
2022/05/14 11:23:26;;;;;;;80.03;76.03;;;;;;;;;;5066157;28;20479;-68
2022/05/14 11:26:09;;;;;;;78.95;74.95;;;;;;;;;;5066009;28;20486;-68
2022/05/14 11:28:35;;;;;;;74.25;70.50;;;;;;;;;;5065216;28;20032;-68
2022/05/14 11:31:17;;;;;;;84.78;80.50;;;;;;;;;;5079733;28;20033;-68
2022/05/14 11:33:44;;;;;;;76.07;71.70;;;;;;;;;;5065514;28;20025;-68
2022/05/14 11:36:10;;;;;;;65.68;62.38;;;;;;;;;;5065685;28;20098;-67
2022/05/14 11:38:38;;;;;;;68.03;64.63;;;;;;;;;;5065653;28;20036;-69
2022/05/14 11:41:10;;;;;;;87.45;83.15;;;;;;;;;;5065810;28;20036;-69
2022/05/14 11:43:48;;;;;;;77.68;73.82;;;;;;;;;;5066129;28;20665;-68
2022/05/14 11:46:19;;;;;;;61.22;58.13;;;;;;;;;;5067956;28;20062;-69
2022/05/14 11:48:49;;;;;;;60.30;57.25;;;;;;;;;;5061003;28;20090;-69
2022/05/14 11:51:47;;;;;;;90.25;85.47;;;;;;;;;;5085485;28;20059;-69
2022/05/14 11:54:20;;;;;;;51.28;48.67;;;;;;;;;;5068066;28;20044;-68
2022/05/14 11:57:14;;;;;;;45.17;42.88;;;;;;;;;;5068836;28;20039;-69
2022/05/14 12:00:03;;;;;;;60.53;57.50;;;;;;;;;;5070135;28;20450;-68
2022/05/14 12:02:42;;;;;;;55.47;52.67;;;;;;;;;;5069665;28;20033;-68
2022/05/14 12:05:15;;;;;;;55.53;52.72;;;;;;;;;;5067928;28;20048;-68
2022/05/14 12:07:46;;;;;;;48.05;45.65;;;;;;;;;;5068995;28;20036;-68
2022/05/14 12:10:49;;;;;;;43.25;41.05;;;;;;;;;;5069392;28;20523;-68
2022/05/14 12:13:25;;;;;;;43.92;41.72;;;;;;;;;;5069276;28;20020;-68
2022/05/14 12:15:54;;;;;;;43.35;41.15;;;;;;;;;;5069817;28;20343;-67
2022/05/14 12:18:21;;;;;;;45.47;43.10;;;;;;;;;;5069126;28;20442;-67
2022/05/14 12:21:01;;;;;;;46.42;44.08;;;;;;;;;;5069482;28;20032;-68
2022/05/14 12:23:34;;;;;;;;;;;;;;;;;;5069469;28;20373;-67
2022/05/14 12:26:00;;;;;;;39.10;37.10;;;;;;;;;;5068993;28;20357;-66
2022/05/14 12:28:33;;;;;;;45.38;42.88;;;;;;;;;;5069997;28;20025;-67
2022/05/14 12:34:01;;;;;;;41.38;39.28;;;;;;;;;;5068327;28;20020;-64
2022/05/14 12:36:36;;;;;;;44.88;42.60;;;;;;;;;;5069019;28;20569;-64
2022/05/14 12:39:09;;;;;;;43.53;41.33;;;;;;;;;;5068436;28;20123;-66
2022/05/14 12:41:41;;;;;;;40.88;38.78;;;;;;;;;;5068324;28;20016;-66
2022/05/14 12:44:21;;;;;;;41.70;39.60;;;;;;;;;;5084128;28;20039;-65
2022/05/14 12:46:48;;;;;;;;;;;;;;;;;;5069604;28;20055;-65
2022/05/14 12:49:21;;;;;;;38.13;36.13;;;;;;;;;;5067202;28;19977;-66
2022/05/14 12:51:52;;;;;;;40.67;38.60;;;;;;;;;;5068762;28;20024;-66
2022/05/14 12:54:24;;;;;;;41.83;39.70;;;;;;;;;;5069335;28;20029;-67
2022/05/14 12:56:51;;;;;;;42.80;40.60;;;;;;;;;;5067679;28;20047;-67
2022/05/14 12:59:17;;;;;;;48.03;45.63;;;;;;;;;;5069047;28;20037;-67
2022/05/14 13:01:42;;;;;;;45.40;43.08;;;;;;;;;;5068641;28;20151;-67
2022/05/14 13:04:10;;;;;;;43.38;41.13;;;;;;;;;;5067938;28;20025;-66
2022/05/14 13:06:44;;;;;;;46.72;44.38;;;;;;;;;;5067314;28;20089;-67
2022/05/14 13:09:10;;;;;;;44.72;42.42;;;;;;;;;;5068918;28;20048;-67
2022/05/14 13:11:45;;;;;;;47.20;44.83;;;;;;;;;;5068346;28;20497;-66
2022/05/14 13:14:16;;;;;;;48.55;46.10;;;;;;;;;;5068538;28;20033;-66
2022/05/14 13:16:52;;;;;;;47.55;45.15;;;;;;;;;;5067657;28;20020;-65
2022/05/14 13:19:20;;;;;;;54.20;51.50;;;;;;;;;;5067968;28;20204;-67
2022/05/14 13:21:49;;;;;;;51.05;48.42;;;;;;;;;;5067202;28;20601;-67
2022/05/14 13:24:27;;;;;;;58.00;55.10;;;;;;;;;;5067875;28;20033;-67
2022/05/14 13:26:55;;;;;;;53.00;50.35;;;;;;;;;;5067418;28;20119;-67
2022/05/14 13:29:23;;;;;;;59.78;56.80;;;;;;;;;;5066899;28;20104;-66
2022/05/14 13:31:51;;;;;;;60.40;57.40;;;;;;;;;;5067525;28;20040;-67
2022/05/14 13:37:37;;;;;;;58.22;55.33;;;;;;;;;;5067039;28;20132;-67
2022/05/14 13:40:15;;;;;;;61.60;58.50;;;;;;;;;;5069554;28;20079;-66
2022/05/14 13:43:04;;;;;;;64.60;61.40;;;;;;;;;;5066225;28;20259;-67
2022/05/14 13:45:44;;;;;;;63.47;60.30;;;;;;;;;;5066791;28;20044;-67
2022/05/14 13:48:12;;;;;;;58.50;55.58;;;;;;;;;;5067349;28;20032;-67
2022/05/14 13:50:52;;;;;;;63.30;60.10;;;;;;;;;;5067457;28;20429;-67
2022/05/14 13:53:34;;;;;;;62.08;58.80;;;;;;;;;;5067417;28;20021;-67
2022/05/14 13:56:07;;;;;;;62.67;59.53;;;;;;;;;;5065042;28;20044;-67
2022/05/14 13:58:36;;;;;;;65.82;62.55;;;;;;;;;;5082281;28;20103;-66
2022/05/14 14:01:05;;;;;;;57.70;54.80;;;;;;;;;;5067293;28;20051;-67
2022/05/14 14:03:51;;;;;;;59.80;56.80;;;;;;;;;;5066625;28;20042;-59
2022/05/14 14:06:18;;;;;;;66.60;63.30;;;;;;;;;;5066778;28;20113;-59
2022/05/14 14:08:44;;;;;;;61.83;58.63;;;;;;;;;;5066708;28;20081;-59
2022/05/14 14:11:11;;;;;;;76.85;72.95;;;;;;;;;;5066615;28;20048;-59
2022/05/14 14:13:37;;;;;;;76.95;73.15;;;;;;;;;;5066419;28;20051;-58
2022/05/14 14:16:03;;;;;;;63.17;60.03;;;;;;;;;;5066259;28;20046;-59
2022/05/14 14:18:29;;;;;;;67.50;64.13;;;;;;;;;;5066568;28;20051;-59
2022/05/14 14:20:57;;;;;;;91.18;86.65;;;;;;;;;;5065689;28;20059;-59
2022/05/14 14:23:28;;;;;;;59.13;56.17;;;;;;;;;;5065422;28;20027;-59
2022/05/14 14:25:54;;;;;;;69.18;65.78;;;;;;;;;;5064876;28;20982;-59
2022/05/14 14:28:20;;;;;;;65.00;61.70;;;;;;;;;;5067144;28;20102;-59
2022/05/14 14:30:46;;;;;;;75.07;71.35;;;;;;;;;;5066385;28;20021;-59
2022/05/14 14:33:13;;;;;;;128.75;122.40;;;;;;;;;;5065059;28;20020;-58
2022/05/14 14:35:38;;;;;;;88.45;84.07;;;;;;;;;;5066838;28;20044;-58
2022/05/14 14:38:05;;;;;;;60.63;57.63;;;;;;;;;;5065831;28;20035;-58
2022/05/14 14:40:30;;;;;;;77.68;73.85;;;;;;;;;;5067209;28;20402;-58
2022/05/14 14:42:56;;;;;;;116.18;110.45;;;;;;;;;;5065849;28;20051;-58
2022/05/14 14:45:21;;;;;;;73.82;70.15;;;;;;;;;;5066557;28;20108;-58
2022/05/14 14:47:48;;;;;;;63.22;60.05;;;;;;;;;;5066231;28;20027;-58
2022/05/14 14:50:15;;;;;;;73.32;69.00;;;;;;;;;;5066095;28;20740;-58
2022/05/14 14:52:41;;;;;;;125.03;118.88;;;;;;;;;;5065046;28;20032;-58
2022/05/14 14:55:07;;;;;;;104.90;99.70;;;;;;;;;;5058222;28;20024;-58
2022/05/14 14:57:33;;;;;;;67.00;63.50;;;;;;;;;;5066395;28;20050;-58
2022/05/14 14:59:58;;;;;;;70.53;67.00;;;;;;;;;;5065599;28;20073;-58